createdAt,value
2018-03-20T00:00:23.342Z,18.30
2018-03-20T00:02:51.090Z,18.33
2018-03-20T00:05:18.942Z,18.80
2018-03-20T00:07:46.624Z,16.35
2018-03-20T00:10:15.104Z,16.90
2018-03-20T00:12:42.909Z,17.85
2018-03-20T00:15:10.759Z,17.67
2018-03-20T00:17:38.609Z,17.62
2018-03-20T00:20:06.462Z,18.95
2018-03-20T00:22:34.211Z,17.40
2018-03-20T00:25:01.961Z,17.77
2018-03-20T00:27:29.812Z,16.92
2018-03-20T00:29:57.673Z,17.25
2018-03-20T00:32:25.400Z,17.85
2018-03-20T00:34:53.168Z,17.80
2018-03-20T00:37:20.888Z,16.85
2018-03-20T00:39:48.568Z,17.00
2018-03-20T00:42:16.311Z,18.15
2018-03-20T00:44:43.995Z,19.02
2018-03-20T00:47:11.826Z,17.33
2018-03-20T00:49:40.380Z,16.27
2018-03-20T00:52:08.229Z,16.27
2018-03-20T00:54:36.081Z,17.25
2018-03-20T00:57:03.933Z,17.30
2018-03-20T00:59:31.784Z,16.45
2018-03-20T01:01:59.636Z,17.73
2018-03-20T01:04:27.359Z,16.27
2018-03-20T01:06:55.139Z,16.90
2018-03-20T01:09:22.887Z,18.05
2018-03-20T01:11:50.608Z,17.75
2018-03-20T01:14:18.283Z,16.87
2018-03-20T01:16:46.036Z,16.87
2018-03-20T01:19:13.883Z,17.80
2018-03-20T01:21:41.735Z,17.45
2018-03-20T01:24:09.691Z,18.42
2018-03-20T01:26:37.440Z,17.75
2018-03-20T01:29:05.290Z,16.70
2018-03-20T01:31:33.141Z,17.52
2018-03-20T01:34:00.894Z,17.35
2018-03-20T01:36:28.647Z,17.62
2018-03-20T01:38:56.495Z,15.80
2018-03-20T01:41:24.346Z,16.85
2018-03-20T01:43:52.199Z,17.15
2018-03-20T01:46:20.050Z,17.83
2018-03-20T01:48:47.798Z,17.35
2018-03-20T01:51:15.650Z,16.20
2018-03-20T01:53:43.403Z,16.48
2018-03-20T01:56:11.264Z,15.93
2018-03-20T01:58:39.103Z,16.52
2018-03-20T02:01:06.955Z,16.55
2018-03-20T02:03:34.813Z,15.85
2018-03-20T02:06:02.492Z,16.23
2018-03-20T02:08:30.305Z,16.40
2018-03-20T02:10:58.057Z,16.37
2018-03-20T02:13:25.909Z,16.58
2018-03-20T02:15:53.760Z,16.30
2018-03-20T02:18:21.616Z,17.73
2018-03-20T02:20:49.466Z,16.25
2018-03-20T02:23:17.315Z,14.05
2018-03-20T02:25:45.104Z,15.65
2018-03-20T02:28:12.917Z,15.80
2018-03-20T02:30:40.768Z,15.60
2018-03-20T02:33:08.519Z,15.82
2018-03-20T02:35:36.255Z,15.70
2018-03-20T02:38:04.017Z,15.65
2018-03-20T02:40:31.869Z,15.32
2018-03-20T02:42:59.720Z,13.93
2018-03-20T02:45:27.575Z,14.20
2018-03-20T02:47:55.430Z,14.15
2018-03-20T02:50:23.103Z,13.60
2018-03-20T02:52:51.583Z,14.25
2018-03-20T02:55:19.264Z,14.00
2018-03-20T02:57:47.008Z,13.70
2018-03-20T03:00:14.736Z,13.40
2018-03-20T03:02:42.416Z,13.60
2018-03-20T03:05:10.181Z,14.48
2018-03-20T03:07:38.034Z,12.93
2018-03-20T03:10:05.886Z,13.23
2018-03-20T03:12:33.636Z,13.30
2018-03-20T03:15:01.489Z,13.35
2018-03-20T03:17:29.204Z,13.30
2018-03-20T03:19:56.993Z,15.55
2018-03-20T03:22:24.839Z,15.27
2018-03-20T03:24:52.589Z,17.20
2018-03-20T03:27:20.271Z,15.73
2018-03-20T03:29:47.996Z,20.85
2018-03-20T03:32:15.838Z,22.00
2018-03-20T03:34:43.688Z,23.33
2018-03-20T03:37:11.437Z,22.75
2018-03-20T03:39:39.288Z,23.67
2018-03-20T03:42:07.140Z,21.73
2018-03-20T03:44:34.890Z,22.52
2018-03-20T03:47:02.742Z,21.12
2018-03-20T03:49:30.416Z,23.05
2018-03-20T03:51:59.164Z,21.05
2018-03-20T03:54:26.914Z,21.77
2018-03-20T03:56:54.664Z,24.63
2018-03-20T03:59:22.355Z,24.12
2018-03-20T04:01:50.069Z,21.73
2018-03-20T04:04:17.945Z,20.83
2018-03-20T04:06:46.449Z,19.67
2018-03-20T04:09:14.235Z,20.23
2018-03-20T04:11:42.080Z,20.30
2018-03-20T04:14:09.932Z,20.60
2018-03-20T04:16:37.681Z,19.75
2018-03-20T04:19:05.430Z,21.15
2018-03-20T04:21:33.180Z,22.20
2018-03-20T04:24:01.034Z,21.12
2018-03-20T04:26:28.884Z,19.20
2018-03-20T04:28:56.563Z,19.90
2018-03-20T04:31:25.101Z,20.40
2018-03-20T04:33:52.851Z,18.70
2018-03-20T04:36:20.702Z,18.67
2018-03-20T04:38:48.384Z,17.60
2018-03-20T04:41:16.098Z,18.42
2018-03-20T04:43:43.820Z,17.90
2018-03-20T04:46:11.498Z,17.90
2018-03-20T04:48:39.345Z,17.60
2018-03-20T04:51:07.095Z,18.00
2018-03-20T04:53:34.946Z,18.73
2018-03-20T04:56:02.646Z,17.67
2018-03-20T04:58:30.342Z,19.42
2018-03-20T05:00:58.200Z,17.83
2018-03-20T05:03:25.948Z,17.70
2018-03-20T05:05:53.680Z,15.70
2018-03-20T05:08:21.447Z,17.62
2018-03-20T05:10:49.297Z,17.30
2018-03-20T05:13:17.013Z,18.45
2018-03-20T05:15:44.898Z,17.87
2018-03-20T05:18:12.750Z,16.73
2018-03-20T05:20:46.235Z,16.95
2018-03-20T05:23:28.930Z,15.23
2018-03-20T05:25:56.793Z,16.05
2018-03-20T05:28:24.484Z,17.23
2018-03-20T05:30:52.216Z,14.87
2018-03-20T05:33:20.749Z,15.40
2018-03-20T05:35:48.605Z,14.40
2018-03-20T05:38:16.453Z,15.48
2018-03-20T05:40:44.305Z,13.18
2018-03-20T05:43:12.156Z,13.13
2018-03-20T05:45:40.007Z,13.40
2018-03-20T05:48:13.424Z,12.90
2018-03-20T05:53:43.803Z,13.68
2018-03-20T05:56:11.554Z,13.40
2018-03-20T05:58:39.317Z,14.50
2018-03-20T06:01:07.869Z,14.48
2018-03-20T06:03:35.721Z,12.75
2018-03-20T06:06:03.472Z,13.38
2018-03-20T06:08:31.322Z,13.32
2018-03-20T06:11:00.220Z,13.10
2018-03-20T06:13:28.712Z,14.10
2018-03-20T06:15:56.524Z,13.62
2018-03-20T06:18:24.370Z,14.65
2018-03-20T06:20:52.221Z,14.10
2018-03-20T06:23:19.944Z,13.40
2018-03-20T06:25:47.725Z,14.27
2018-03-20T06:28:15.576Z,14.60
2018-03-20T06:30:43.424Z,13.93
2018-03-20T06:33:11.107Z,14.48
2018-03-20T06:35:38.829Z,13.90
2018-03-20T06:38:06.774Z,13.48
2018-03-20T06:40:35.443Z,12.43
2018-03-20T06:43:03.296Z,11.12
2018-03-20T06:45:31.054Z,12.68
2018-03-20T06:47:58.793Z,10.85
2018-03-20T06:50:26.651Z,11.07
2018-03-20T06:52:54.606Z,10.85
2018-03-20T06:55:22.289Z,12.98
2018-03-20T06:57:50.029Z,11.10
2018-03-20T07:00:18.482Z,11.50
2018-03-20T07:02:47.034Z,11.77
2018-03-20T07:05:14.886Z,11.35
2018-03-20T07:07:42.773Z,11.80
2018-03-20T07:10:10.591Z,11.38
2018-03-20T07:12:38.443Z,11.68
2018-03-20T07:15:06.168Z,11.63
2018-03-20T07:17:33.848Z,11.20
2018-03-20T07:20:01.689Z,11.07
2018-03-20T07:22:29.439Z,11.32
2018-03-20T07:24:57.159Z,11.68
2018-03-20T07:27:24.852Z,13.43
2018-03-20T07:29:52.536Z,12.02
2018-03-20T07:32:20.293Z,11.60
2018-03-20T07:34:47.977Z,11.55
2018-03-20T07:37:15.833Z,12.40
2018-03-20T07:39:43.582Z,11.48
2018-03-20T07:42:11.332Z,9.85
2018-03-20T07:44:39.056Z,8.98
2018-03-20T07:47:06.727Z,10.73
2018-03-20T07:49:34.580Z,10.15
2018-03-20T07:52:02.431Z,10.50
2018-03-20T07:54:30.189Z,11.52
2018-03-20T07:56:58.035Z,12.50
2018-03-20T07:59:25.888Z,13.50
2018-03-20T08:01:53.624Z,13.18
2018-03-20T08:04:21.488Z,11.93
2018-03-20T08:06:49.339Z,9.10
2018-03-20T08:09:17.064Z,10.63
2018-03-20T08:11:44.785Z,10.82
2018-03-20T08:14:12.588Z,11.02
2018-03-20T08:16:40.379Z,9.90
2018-03-20T08:19:08.251Z,9.00
2018-03-20T08:21:36.041Z,11.13
2018-03-20T08:24:03.763Z,10.57
2018-03-20T08:26:31.538Z,12.88
2018-03-20T08:28:59.288Z,13.07
2018-03-20T08:31:27.036Z,13.25
2018-03-20T08:33:54.717Z,12.70
2018-03-20T08:36:23.204Z,12.73
2018-03-20T08:38:51.005Z,12.13
2018-03-20T08:41:19.678Z,13.77
2018-03-20T08:43:47.389Z,11.82
2018-03-20T08:46:15.133Z,10.93
2018-03-20T08:48:42.821Z,12.25
2018-03-20T08:51:10.673Z,11.82
2018-03-20T08:53:38.524Z,12.10
2018-03-20T08:56:06.375Z,14.02
2018-03-20T08:58:34.066Z,12.68
2018-03-20T09:01:01.800Z,13.25
2018-03-20T09:03:30.342Z,12.63
2018-03-20T09:05:58.092Z,12.00
2018-03-20T09:08:25.944Z,11.95
2018-03-20T09:10:53.795Z,11.43
2018-03-20T09:13:21.648Z,12.18
2018-03-20T09:15:49.328Z,11.77
2018-03-20T09:18:17.053Z,10.88
2018-03-20T09:20:44.894Z,11.25
2018-03-20T09:23:12.577Z,12.07
2018-03-20T09:25:40.304Z,11.55
2018-03-20T09:28:07.988Z,13.10
2018-03-20T09:30:35.891Z,14.87
2018-03-20T09:33:03.581Z,14.07
2018-03-20T09:35:31.274Z,12.85
2018-03-20T09:37:59.140Z,12.45
2018-03-20T09:40:26.994Z,12.05
2018-03-20T09:42:54.712Z,12.32
2018-03-20T09:45:22.436Z,11.02
2018-03-20T09:47:50.132Z,12.75
2018-03-20T09:50:17.868Z,11.75
2018-03-20T09:52:45.641Z,11.73
2018-03-20T09:55:13.467Z,11.77
2018-03-20T09:57:41.342Z,10.55
2018-03-20T10:00:09.194Z,11.15
2018-03-20T10:02:37.045Z,10.02
2018-03-20T10:05:04.897Z,9.68
2018-03-20T10:07:32.748Z,9.75
2018-03-20T10:10:00.601Z,9.82
2018-03-20T10:12:28.284Z,10.93
2018-03-20T10:14:56.101Z,10.50
2018-03-20T10:17:23.953Z,10.82
2018-03-20T10:19:51.805Z,11.77
2018-03-20T10:22:19.656Z,11.35
2018-03-20T10:24:47.508Z,11.40
2018-03-20T10:27:15.367Z,11.95
2018-03-20T10:29:44.029Z,12.07
2018-03-20T10:32:11.906Z,11.27
2018-03-20T10:34:39.734Z,10.80
2018-03-20T10:37:07.585Z,10.90
2018-03-20T10:39:35.334Z,11.88
2018-03-20T10:42:03.185Z,11.50
2018-03-20T10:44:31.755Z,10.57
2018-03-20T10:46:59.569Z,9.77
2018-03-20T10:49:27.303Z,9.80
2018-03-20T10:51:55.108Z,11.73
2018-03-20T10:54:22.807Z,10.13
2018-03-20T10:56:50.546Z,10.75
2018-03-20T10:59:18.355Z,10.40
2018-03-20T11:01:46.212Z,10.02
2018-03-20T11:04:14.065Z,9.02
2018-03-20T11:06:41.910Z,9.20
2018-03-20T11:09:09.762Z,9.50
2018-03-20T11:11:37.616Z,8.70
2018-03-20T11:14:05.470Z,10.05
2018-03-20T11:16:33.192Z,11.63
2018-03-20T11:19:01.989Z,10.70
2018-03-20T11:21:29.846Z,10.60
2018-03-20T11:23:57.541Z,10.90
2018-03-20T11:26:25.341Z,11.18
2018-03-20T11:28:53.193Z,10.98
2018-03-20T11:31:20.944Z,11.65
2018-03-20T11:33:48.810Z,11.23
2018-03-20T11:36:19.636Z,10.75
2018-03-20T11:38:48.287Z,11.63
2018-03-20T11:41:16.138Z,12.25
2018-03-20T11:43:43.886Z,12.37
2018-03-20T11:46:11.737Z,11.25
2018-03-20T11:48:39.493Z,11.57
2018-03-20T11:51:07.339Z,12.05
2018-03-20T11:53:35.190Z,11.73
2018-03-20T11:56:02.941Z,11.32
2018-03-20T11:58:30.791Z,11.15
2018-03-20T12:00:58.546Z,11.55
2018-03-20T12:03:26.396Z,11.15
2018-03-20T12:05:54.249Z,11.75
2018-03-20T12:08:33.769Z,11.12
2018-03-20T12:11:01.622Z,13.07
2018-03-20T12:13:30.092Z,12.88
2018-03-20T12:15:57.942Z,11.45
2018-03-20T12:18:25.799Z,12.30
2018-03-20T12:20:53.645Z,11.32
2018-03-20T12:23:21.496Z,11.93
2018-03-20T12:25:49.251Z,12.07
2018-03-20T12:28:17.097Z,12.55
2018-03-20T12:30:44.948Z,13.00
2018-03-20T12:33:12.700Z,12.63
2018-03-20T12:35:40.454Z,11.60
2018-03-20T12:38:08.300Z,11.75
2018-03-20T12:40:36.186Z,13.10
2018-03-20T12:43:03.881Z,12.30
2018-03-20T12:45:31.605Z,13.10
2018-03-20T12:47:59.398Z,13.62
2018-03-20T12:50:27.133Z,12.00
2018-03-20T12:52:54.902Z,12.52
2018-03-20T12:55:23.062Z,10.55
2018-03-20T12:57:50.914Z,9.90
2018-03-20T13:00:18.761Z,10.88
2018-03-20T13:02:46.614Z,10.55
2018-03-20T13:05:14.466Z,10.40
2018-03-20T13:07:42.328Z,10.05
2018-03-20T13:10:10.170Z,8.68
2018-03-20T13:12:38.022Z,7.30
2018-03-20T13:15:05.871Z,8.60
2018-03-20T13:17:33.724Z,11.07
2018-03-20T13:20:01.458Z,10.00
2018-03-20T13:22:29.856Z,7.95
2018-03-20T13:24:57.800Z,7.62
2018-03-20T13:27:25.646Z,9.35
2018-03-20T13:29:53.380Z,10.68
2018-03-20T13:32:21.153Z,11.98
2018-03-20T13:34:48.838Z,11.70
2018-03-20T13:37:16.610Z,12.10
2018-03-20T13:39:44.391Z,9.68
2018-03-20T13:42:12.244Z,10.98
2018-03-20T13:44:40.071Z,12.05
2018-03-20T13:47:07.748Z,13.20
2018-03-20T13:49:35.483Z,12.68
2018-03-20T13:52:03.241Z,12.35
2018-03-20T13:54:31.044Z,11.48
2018-03-20T13:56:58.772Z,11.55
2018-03-20T13:59:27.412Z,11.60
2018-03-20T14:01:55.265Z,11.95
2018-03-20T14:04:23.935Z,12.60
2018-03-20T14:06:51.787Z,12.25
2018-03-20T14:09:19.638Z,12.30
2018-03-20T14:11:47.504Z,12.90
2018-03-20T14:14:15.954Z,12.90
2018-03-20T14:16:43.808Z,12.43
2018-03-20T14:19:11.659Z,12.80
2018-03-20T14:21:39.392Z,12.65
2018-03-20T14:24:07.156Z,13.25
2018-03-20T14:26:35.014Z,12.90
2018-03-20T14:29:02.860Z,12.73
2018-03-20T14:31:30.711Z,11.55
2018-03-20T14:33:58.572Z,12.13
2018-03-20T14:36:26.421Z,12.80
2018-03-20T14:38:55.090Z,11.90
2018-03-20T14:41:22.840Z,12.02
2018-03-20T14:43:50.691Z,11.70
2018-03-20T14:46:18.541Z,11.70
2018-03-20T14:48:46.397Z,12.35
2018-03-20T14:51:14.245Z,11.18
2018-03-20T14:53:41.929Z,10.88
2018-03-20T14:56:09.744Z,10.75
2018-03-20T14:58:37.423Z,11.18
2018-03-20T15:01:05.959Z,10.90
2018-03-20T15:03:33.810Z,12.05
2018-03-20T15:06:01.664Z,11.07
2018-03-20T15:08:29.517Z,10.15
2018-03-20T15:10:57.368Z,12.23
2018-03-20T15:13:25.220Z,10.00
2018-03-20T15:15:53.072Z,10.82
2018-03-20T15:18:20.935Z,11.32
2018-03-20T15:20:49.594Z,11.68
2018-03-20T15:23:17.342Z,11.32
2018-03-20T15:25:45.200Z,13.30
2018-03-20T15:28:13.046Z,10.80
2018-03-20T15:30:40.901Z,10.95
2018-03-20T15:33:08.649Z,10.80
2018-03-20T15:35:36.510Z,8.90
2018-03-20T15:38:04.350Z,10.13
2018-03-20T15:40:32.202Z,10.20
2018-03-20T15:43:00.054Z,10.30
2018-03-20T15:45:27.908Z,10.40
2018-03-20T15:47:55.765Z,9.40
2018-03-20T15:50:23.614Z,9.60
2018-03-20T15:52:51.517Z,9.40
2018-03-20T15:55:19.423Z,9.52
2018-03-20T15:57:47.269Z,9.43
2018-03-20T16:00:15.121Z,8.98
2018-03-20T16:02:42.870Z,9.30
2018-03-20T16:05:10.724Z,9.02
2018-03-20T16:07:38.574Z,9.10
2018-03-20T16:10:06.427Z,9.82
2018-03-20T16:12:34.277Z,9.50
2018-03-20T16:15:02.149Z,9.82
2018-03-20T16:17:29.981Z,9.38
2018-03-20T16:19:57.835Z,9.90
2018-03-20T16:22:25.687Z,10.68
2018-03-20T16:24:53.541Z,10.60
2018-03-20T16:27:21.393Z,10.13
2018-03-20T16:29:49.243Z,10.32
2018-03-20T16:32:16.991Z,9.82
2018-03-20T16:34:44.890Z,10.60
2018-03-20T16:37:12.694Z,9.15
2018-03-20T16:39:40.558Z,9.13
2018-03-20T16:42:08.398Z,10.30
2018-03-20T16:44:36.250Z,10.50
2018-03-20T16:47:03.936Z,10.13
2018-03-20T16:49:31.753Z,9.52
2018-03-20T16:51:59.489Z,9.00
2018-03-20T16:54:27.352Z,9.55
2018-03-20T16:56:55.146Z,9.40
2018-03-20T16:59:22.978Z,8.73
2018-03-20T17:01:50.712Z,9.32
2018-03-20T17:04:18.557Z,9.57
2018-03-20T17:06:46.405Z,10.40
2018-03-20T17:09:14.154Z,10.60
2018-03-20T17:11:41.904Z,9.88
2018-03-20T17:14:09.619Z,10.60
2018-03-20T17:16:37.402Z,11.25
2018-03-20T17:19:05.254Z,11.30
2018-03-20T17:21:33.027Z,10.75
2018-03-20T17:24:01.675Z,11.10
2018-03-20T17:26:29.468Z,10.70
2018-03-20T17:28:57.277Z,12.75
2018-03-20T17:31:25.131Z,11.68
2018-03-20T17:33:52.981Z,11.98
2018-03-20T17:36:20.730Z,12.00
2018-03-20T17:38:48.584Z,11.73
2018-03-20T17:41:16.382Z,12.65
2018-03-20T17:43:44.186Z,11.15
2018-03-20T17:46:12.040Z,11.02
2018-03-20T17:48:39.761Z,11.45
2018-03-20T17:51:07.440Z,13.10
2018-03-20T17:53:35.286Z,12.50
2018-03-20T17:56:03.134Z,11.80
2018-03-20T17:58:30.932Z,12.82
2018-03-20T18:01:00.226Z,12.88
2018-03-20T18:03:27.952Z,13.88
2018-03-20T18:05:56.498Z,13.38
2018-03-20T18:08:24.180Z,14.77
2018-03-20T18:10:51.925Z,15.20
2018-03-20T18:13:19.737Z,14.32
2018-03-20T18:15:47.489Z,15.68
2018-03-20T18:18:15.340Z,14.90
2018-03-20T18:20:43.292Z,14.82
2018-03-20T18:23:11.143Z,14.32
2018-03-20T18:25:38.860Z,15.43
2018-03-20T18:28:06.759Z,14.68
2018-03-20T18:30:35.318Z,14.35
2018-03-20T18:33:03.168Z,14.75
2018-03-20T18:35:30.925Z,15.15
2018-03-20T18:38:03.269Z,14.38
2018-03-20T18:40:31.941Z,14.48
2018-03-20T18:43:00.348Z,14.23
2018-03-20T18:45:28.159Z,14.68
2018-03-20T18:47:56.012Z,14.43
2018-03-20T18:50:23.761Z,14.15
2018-03-20T18:52:51.617Z,16.02
2018-03-20T18:55:19.464Z,16.75
2018-03-20T18:57:47.319Z,14.55
2018-03-20T19:00:15.069Z,15.85
2018-03-20T19:02:42.918Z,15.40
2018-03-20T19:05:10.712Z,15.65
2018-03-20T19:07:38.520Z,16.08
2018-03-20T19:10:06.242Z,17.15
2018-03-20T19:12:34.029Z,18.05
2018-03-20T19:15:06.811Z,16.35
2018-03-20T19:17:34.591Z,18.17
2018-03-20T19:20:02.277Z,17.80
2018-03-20T19:22:30.031Z,16.35
2018-03-20T19:24:58.931Z,17.90
2018-03-20T19:27:26.904Z,20.75
2018-03-20T19:29:55.539Z,18.65
2018-03-20T19:32:23.390Z,17.08
2018-03-20T19:34:51.240Z,18.30
2018-03-20T19:37:19.091Z,18.60
2018-03-20T19:39:46.879Z,17.58
2018-03-20T19:42:16.757Z,17.60
2018-03-20T19:44:44.591Z,17.08
2018-03-20T19:47:12.337Z,16.75
2018-03-20T19:49:40.032Z,17.30
2018-03-20T19:52:07.778Z,18.00
2018-03-20T19:54:35.586Z,17.67
2018-03-20T19:57:03.447Z,18.70
2018-03-20T19:59:31.290Z,19.17
2018-03-20T20:01:59.147Z,19.23
2018-03-20T20:04:26.877Z,18.50
2018-03-20T20:06:54.748Z,19.35
2018-03-20T20:09:22.468Z,19.45
2018-03-20T20:11:50.346Z,17.40
2018-03-20T20:14:18.113Z,17.85
2018-03-20T20:16:46.767Z,17.08
2018-03-20T20:19:14.517Z,18.77
2018-03-20T20:21:42.370Z,17.87
2018-03-20T20:24:10.227Z,17.62
2018-03-20T20:26:38.070Z,17.77
2018-03-20T20:29:05.819Z,17.20
2018-03-20T20:31:33.570Z,18.17
2018-03-20T20:34:01.420Z,17.98
2018-03-20T20:36:29.113Z,17.95
2018-03-20T20:38:56.924Z,18.27
2018-03-20T20:41:24.661Z,17.85
2018-03-20T20:43:53.342Z,18.37
2018-03-20T20:46:21.092Z,16.85
2018-03-20T20:48:48.885Z,18.35
2018-03-20T20:51:16.694Z,17.45
2018-03-20T20:53:44.443Z,17.80
2018-03-20T20:56:12.294Z,18.00
2018-03-20T20:58:40.146Z,17.60
2018-03-20T21:01:08.000Z,17.87
2018-03-20T21:03:35.849Z,17.20
2018-03-20T21:06:03.702Z,16.50
2018-03-20T21:08:31.451Z,16.65
2018-03-20T21:10:59.410Z,19.30
2018-03-20T21:13:27.131Z,19.08
2018-03-20T21:15:54.906Z,18.02
2018-03-20T21:18:22.758Z,18.45
2018-03-20T21:20:50.506Z,18.95
2018-03-20T21:23:19.482Z,17.75
2018-03-20T21:25:47.160Z,17.55
2018-03-20T21:28:15.801Z,16.80
2018-03-20T21:30:43.658Z,16.58
2018-03-20T21:33:11.524Z,16.30
2018-03-20T21:35:40.177Z,16.48
2018-03-20T21:38:08.029Z,17.05
2018-03-20T21:40:35.881Z,15.20
2018-03-20T21:43:03.568Z,14.27
2018-03-20T21:45:31.378Z,14.80
2018-03-20T21:47:59.232Z,15.05
2018-03-20T21:50:27.084Z,15.20
2018-03-20T21:52:54.938Z,14.80
2018-03-20T21:55:22.790Z,15.23
2018-03-20T21:57:50.638Z,13.82
2018-03-20T22:00:18.372Z,13.50
2018-03-20T22:02:46.076Z,13.23
2018-03-20T22:05:14.603Z,13.18
2018-03-20T22:07:42.454Z,12.80
2018-03-20T22:10:10.138Z,12.98
2018-03-20T22:12:37.955Z,12.45
2018-03-20T22:15:05.804Z,11.60
2018-03-20T22:17:33.657Z,12.55
2018-03-20T22:20:01.509Z,13.05
2018-03-20T22:22:29.468Z,12.68
2018-03-20T22:24:58.075Z,12.52
2018-03-20T22:27:25.992Z,11.38
2018-03-20T22:29:53.842Z,13.60
2018-03-20T22:32:21.692Z,12.95
2018-03-20T22:34:49.542Z,13.32
2018-03-20T22:37:17.292Z,12.27
2018-03-20T22:39:45.012Z,12.23
2018-03-20T22:42:12.691Z,13.00
2018-03-20T22:44:40.540Z,13.07
2018-03-20T22:47:08.393Z,11.45
2018-03-20T22:49:36.246Z,11.50
2018-03-20T22:52:04.094Z,11.90
2018-03-20T22:54:31.946Z,12.05
2018-03-20T22:56:59.702Z,11.85
2018-03-20T22:59:27.553Z,12.00
2018-03-20T23:01:55.310Z,13.32
2018-03-20T23:04:23.152Z,12.43
2018-03-20T23:06:51.004Z,11.18
2018-03-20T23:09:18.720Z,10.60
2018-03-20T23:11:46.500Z,10.60
2018-03-20T23:14:14.353Z,11.68
2018-03-20T23:16:42.027Z,9.10
2018-03-20T23:19:09.705Z,9.50
2018-03-20T23:21:37.501Z,8.73
2018-03-20T23:24:05.194Z,8.32
2018-03-20T23:26:32.996Z,9.10
2018-03-20T23:29:00.849Z,9.85
2018-03-20T23:31:28.564Z,8.68
2018-03-20T23:33:56.350Z,9.60
2018-03-20T23:36:24.201Z,8.15
2018-03-20T23:38:52.054Z,8.25
2018-03-20T23:41:19.736Z,8.25
2018-03-20T23:43:47.452Z,7.85
2018-03-20T23:46:15.301Z,7.32
2018-03-20T23:48:43.153Z,7.03
2018-03-20T23:51:10.903Z,7.50
2018-03-20T23:53:38.759Z,8.48
2018-03-20T23:56:06.605Z,7.45
2018-03-20T23:58:34.284Z,6.70
